Time;durP1;ratioP1;P1;durP2;ratioP2;P2;SDS_P1;SDS_P2;PMS_P1;PMS_P2;Temp;Humidity;BMP_temperature;BMP_pressure;BME280_temperature;BME280_humidity;BME280_pressure;Samples;Min_cycle;Max_cycle;Signal;HPM_P1;HPM_P2
2023/03/13 00:01:11;;;;;;;7.63;2.90;;;;;;;10.78;80.32;97671.00;4120879;28;20675;-86
2023/03/13 00:03:16;;;;;;;7.40;3.47;;;;;;;10.75;80.66;97671.25;4124628;28;21009;-86
2023/03/13 00:05:19;;;;;;;9.53;3.10;;;;;;;10.77;81.51;97681.56;4136074;28;20670;-86
2023/03/13 00:07:22;;;;;;;12.30;3.93;;;;;;;10.74;81.43;97677.41;4107971;28;21008;-87
2023/03/13 00:09:26;;;;;;;13.90;3.47;;;;;;;10.74;81.38;97674.78;4121612;28;20644;-87
2023/03/13 00:11:29;;;;;;;9.60;3.00;;;;;;;10.74;81.85;97676.56;4126741;28;21396;-87
2023/03/13 00:13:33;;;;;;;7.30;2.60;;;;;;;10.75;82.05;97680.81;4124783;28;20646;-87
2023/03/13 00:15:36;;;;;;;7.90;3.10;;;;;;;10.74;81.06;97679.19;4140031;28;20630;-87
2023/03/13 00:17:39;;;;;;;11.10;3.33;;;;;;;10.73;81.52;97680.94;4135798;28;20705;-87
2023/03/13 00:19:44;;;;;;;9.63;3.10;;;;;;;10.72;81.60;97681.91;4119938;28;20649;-87
2023/03/13 00:21:47;;;;;;;11.53;2.47;;;;;;;10.72;82.20;97684.53;4120920;28;20638;-87
2023/03/13 00:23:51;;;;;;;12.13;3.00;;;;;;;10.72;81.08;97673.22;4120623;28;20690;-87
2023/03/13 00:25:57;;;;;;;9.63;3.00;;;;;;;10.73;82.01;97674.91;4105060;28;21234;-87
2023/03/13 00:28:00;;;;;;;8.53;3.00;;;;;;;10.71;82.00;97669.00;4121131;28;20627;-87
2023/03/13 00:30:04;;;;;;;11.27;3.30;;;;;;;10.72;81.36;97675.84;4121589;28;21051;-87
2023/03/13 00:32:07;;;;;;;13.57;3.30;;;;;;;10.72;82.22;97668.03;4108469;28;20670;-87
2023/03/13 00:34:11;;;;;;;10.23;3.07;;;;;;;10.71;82.67;97669.81;4114087;28;20639;-87
2023/03/13 00:36:17;;;;;;;8.27;2.83;;;;;;;10.72;81.95;97663.66;4107237;28;21070;-86
2023/03/13 00:38:20;;;;;;;7.97;2.50;;;;;;;10.75;82.54;97657.34;4104134;28;20747;-87
2023/03/13 00:40:23;;;;;;;7.97;3.10;;;;;;;10.77;82.35;97658.91;4108198;28;20687;-87
2023/03/13 00:42:26;;;;;;;14.73;3.67;;;;;;;10.79;81.32;97653.56;4121437;28;20632;-86
2023/03/13 00:44:30;;;;;;;10.40;3.43;;;;;;;10.80;82.39;97654.28;4120713;28;20628;-86
2023/03/13 00:46:33;;;;;;;9.07;3.50;;;;;;;10.84;80.99;97654.91;4121891;28;20645;-86
2023/03/13 00:48:37;;;;;;;8.90;2.70;;;;;;;10.84;81.40;97645.28;4126141;28;20650;-87
2023/03/13 00:50:40;;;;;;;10.30;3.10;;;;;;;10.87;81.40;97644.22;4140752;28;21058;-87
2023/03/13 00:52:44;;;;;;;9.40;2.53;;;;;;;10.85;82.37;97639.13;4123435;28;21658;-87
2023/03/13 00:54:47;;;;;;;12.53;3.37;;;;;;;10.89;81.57;97643.16;4119555;28;20693;-87
2023/03/13 00:56:50;;;;;;;12.23;3.30;;;;;;;10.90;82.48;97638.78;4123259;28;20650;-87
2023/03/13 00:58:53;;;;;;;9.03;2.50;;;;;;;10.92;81.86;97642.91;4125955;28;21110;-87
2023/03/13 01:00:57;;;;;;;10.10;2.90;;;;;;;10.91;82.39;97632.59;4125365;28;20643;-87
2023/03/13 01:03:00;;;;;;;7.20;2.77;;;;;;;10.91;81.19;97625.59;4140888;28;20630;-87
2023/03/13 01:05:03;;;;;;;10.43;3.07;;;;;;;10.91;81.91;97630.81;4120795;28;20663;-87
2023/03/13 01:07:06;;;;;;;7.43;2.80;;;;;;;10.92;82.17;97624.66;4121812;28;21221;-87
2023/03/13 01:09:13;;;;;;;8.63;2.50;;;;;;;10.95;81.23;97626.19;4104998;28;21031;-87
2023/03/13 01:11:18;;;;;;;10.27;2.97;;;;;;;10.97;80.87;97614.69;4121923;28;20731;-86
2023/03/13 01:13:21;;;;;;;8.63;2.87;;;;;;;11.00;81.67;97617.06;4116695;28;20663;-86
2023/03/13 01:15:26;;;;;;;10.60;2.87;;;;;;;11.00;81.42;97613.63;4118998;28;20711;-87
2023/03/13 01:17:29;;;;;;;10.63;2.30;;;;;;;11.01;81.62;97618.72;4136656;28;20682;-87
2023/03/13 01:19:32;;;;;;;7.93;2.50;;;;;;;11.03;81.81;97609.00;4119256;28;20639;-87
2023/03/13 01:21:35;;;;;;;8.77;2.43;;;;;;;11.04;80.58;97605.44;4136025;28;20631;-87
2023/03/13 01:23:38;;;;;;;10.10;2.60;;;;;;;11.04;80.40;97600.22;4125837;28;20738;-87
2023/03/13 01:25:43;;;;;;;8.67;2.87;;;;;;;11.04;80.66;97599.41;4124543;28;21110;-87
2023/03/13 01:27:46;;;;;;;10.50;2.90;;;;;;;11.04;82.21;97595.00;4125347;28;20643;-86
2023/03/13 01:29:49;;;;;;;8.57;2.47;;;;;;;11.05;80.48;97594.06;4134071;28;20649;-87
2023/03/13 01:31:52;;;;;;;9.73;3.20;;;;;;;11.07;82.04;97584.31;4120427;28;20758;-87
2023/03/13 01:33:57;;;;;;;11.20;3.40;;;;;;;11.08;80.63;97583.38;4117042;28;20651;-87
2023/03/13 01:36:01;;;;;;;10.90;2.70;;;;;;;11.07;81.34;97584.31;4125366;28;20693;-87
2023/03/13 01:38:05;;;;;;;6.90;2.63;;;;;;;11.07;80.95;97570.47;4137232;28;21288;-87
2023/03/13 01:40:10;;;;;;;7.73;2.30;;;;;;;11.09;80.33;97577.19;4138624;28;20641;-87
2023/03/13 01:42:14;;;;;;;9.07;2.50;;;;;;;11.09;81.87;97571.97;4136035;28;20624;-87
2023/03/13 01:44:22;;;;;;;6.07;2.20;;;;;;;11.10;80.60;97565.00;4119104;28;20675;-87
2023/03/13 01:46:27;;;;;;;5.20;2.87;;;;;;;11.11;80.31;97564.03;4121560;28;20635;-87
2023/03/13 01:49:11;;;;;;;9.27;2.83;;;;;;;11.10;80.47;97558.00;4105991;28;20731;-87
2023/03/13 01:51:27;;;;;;;6.60;2.47;;;;;;;11.14;80.82;97561.19;4138557;28;20664;-87
2023/03/13 01:53:33;;;;;;;5.20;2.37;;;;;;;11.13;81.15;97552.53;4123034;28;20663;-87
2023/03/13 01:55:38;;;;;;;6.43;2.93;;;;;;;11.13;81.54;97547.31;4104958;28;20718;-87
2023/03/13 01:57:45;;;;;;;5.60;2.50;;;;;;;11.15;80.18;97545.41;4120741;28;20637;-87
2023/03/13 01:59:51;;;;;;;5.80;2.10;;;;;;;11.14;80.13;97538.53;4121571;28;20671;-86
2023/03/13 02:01:57;;;;;;;6.27;2.70;;;;;;;11.15;79.56;97540.19;4147377;28;21216;-87
2023/03/13 02:04:01;;;;;;;6.37;2.20;;;;;;;11.16;80.20;97533.19;4135782;28;21257;-87
2023/03/13 02:06:05;;;;;;;10.00;2.63;;;;;;;11.15;79.41;97539.34;4128142;28;20643;-87
2023/03/13 02:08:12;;;;;;;8.17;2.17;;;;;;;11.14;81.21;97537.69;4126576;28;20638;-87
2023/03/13 02:10:16;;;;;;;9.40;2.10;;;;;;;11.15;80.09;97532.34;4124666;28;21072;-87
2023/03/13 02:12:22;;;;;;;6.50;2.37;;;;;;;11.10;80.07;97531.88;4110256;28;21054;-87
2023/03/13 02:14:29;;;;;;;11.60;2.80;;;;;;;11.07;80.74;97521.69;4125092;28;21241;-87
2023/03/13 02:16:33;;;;;;;7.50;2.13;;;;;;;11.04;79.92;97524.56;4123921;28;20615;-87
2023/03/13 02:18:37;;;;;;;8.30;2.30;;;;;;;11.02;80.23;97520.38;4123383;28;20640;-87
2023/03/13 02:20:41;;;;;;;8.93;2.90;;;;;;;10.97;80.98;97520.75;4124390;28;20635;-87
2023/03/13 02:22:48;;;;;;;5.43;2.60;;;;;;;10.93;80.34;97516.75;4125252;28;20638;-87
2023/03/13 02:24:57;;;;;;;5.90;2.23;;;;;;;10.88;80.98;97507.63;4120994;28;20642;-87
2023/03/13 02:27:03;;;;;;;5.07;2.10;;;;;;;10.86;81.92;97512.94;4121446;28;20676;-85
2023/03/13 02:29:16;;;;;;;9.23;2.20;;;;;;;10.86;80.28;97510.34;4134838;28;20638;-85
2023/03/13 02:31:20;;;;;;;6.50;3.30;;;;;;;10.80;82.36;97507.41;4138487;28;21253;-85
2023/03/13 02:33:26;;;;;;;6.50;2.57;;;;;;;10.77;81.26;97509.41;4125147;28;20702;-85
2023/03/13 02:35:30;;;;;;;11.70;2.53;;;;;;;10.76;81.98;97505.97;4115340;28;20655;-85
2023/03/13 02:37:34;;;;;;;7.03;2.40;;;;;;;10.76;81.61;97505.16;4139176;28;21269;-86
2023/03/13 02:39:40;;;;;;;7.03;2.90;;;;;;;10.77;81.13;97509.41;4107309;28;20640;-85
2023/03/13 02:41:43;;;;;;;7.23;2.20;;;;;;;10.76;81.76;97497.31;4124751;28;20668;-85
2023/03/13 02:43:48;;;;;;;7.83;2.40;;;;;;;10.77;80.60;97494.59;4138884;28;21228;-85
2023/03/13 02:46:03;;;;;;;8.07;2.50;;;;;;;10.78;82.02;97488.44;4126046;28;20641;-85
2023/03/13 02:48:08;;;;;;;9.37;2.40;;;;;;;10.74;81.84;97489.63;4121321;28;20658;-86
2023/03/13 02:50:12;;;;;;;5.90;3.30;;;;;;;10.74;81.64;97486.19;4124965;28;20647;-85
2023/03/13 02:52:20;;;;;;;9.33;2.70;;;;;;;10.75;80.76;97482.63;4107865;28;20865;-85
2023/03/13 02:54:25;;;;;;;6.53;2.43;;;;;;;10.73;82.05;97481.91;4114083;28;20666;-85
2023/03/13 02:56:30;;;;;;;6.47;2.03;;;;;;;10.72;82.83;97467.19;4126653;28;20639;-86
2023/03/13 02:58:39;;;;;;;7.00;2.17;;;;;;;10.71;83.01;97465.56;4126872;28;20647;-85
2023/03/13 03:00:54;;;;;;;8.43;2.33;;;;;;;10.69;83.34;97455.25;4110601;28;20654;-85
2023/03/13 03:02:57;;;;;;;5.13;2.20;;;;;;;10.70;83.58;97458.69;4136653;28;20634;-85
2023/03/13 03:05:00;;;;;;;5.63;2.70;;;;;;;10.70;83.55;97448.25;4121919;28;21011;-86
2023/03/13 03:07:04;;;;;;;6.00;2.00;;;;;;;10.70;82.56;97441.25;4131491;28;21957;-85
2023/03/13 03:09:08;;;;;;;8.10;2.33;;;;;;;10.69;83.30;97441.38;4140927;28;20729;-85
2023/03/13 03:11:12;;;;;;;7.50;2.83;;;;;;;10.71;83.33;97435.09;4109384;28;20703;-85
2023/03/13 03:13:17;;;;;;;4.93;2.00;;;;;;;10.72;84.07;97438.53;4110944;28;20659;-85
2023/03/13 03:15:21;;;;;;;6.20;2.10;;;;;;;10.72;84.24;97422.88;4120265;28;21519;-85
2023/03/13 03:17:26;;;;;;;9.17;2.07;;;;;;;10.71;83.85;97424.66;4105852;28;20666;-85
2023/03/13 03:19:30;;;;;;;6.60;2.13;;;;;;;10.70;85.16;97427.38;4112233;28;20641;-85
2023/03/13 03:21:34;;;;;;;6.40;2.10;;;;;;;10.69;85.51;97423.97;4108470;28;20624;-85
2023/03/13 03:23:37;;;;;;;10.03;3.10;;;;;;;10.70;84.30;97419.56;4121516;28;20761;-85
2023/03/13 03:25:41;;;;;;;5.23;1.60;;;;;;;10.71;85.29;97416.84;4122593;28;20762;-85
2023/03/13 03:27:44;;;;;;;5.90;2.00;;;;;;;10.73;84.85;97422.75;4115915;28;20633;-85
2023/03/13 03:29:47;;;;;;;4.07;1.80;;;;;;;10.76;84.95;97430.31;4118764;28;20639;-85
2023/03/13 03:31:51;;;;;;;7.33;2.43;;;;;;;10.77;84.39;97418.13;4129137;28;21816;-85
2023/03/13 03:33:56;;;;;;;5.77;2.17;;;;;;;10.82;84.49;97422.00;4124308;28;20733;-85
2023/03/13 03:36:00;;;;;;;7.10;2.27;;;;;;;10.82;83.86;97419.41;4138552;28;20629;-85
2023/03/13 03:38:05;;;;;;;5.53;1.80;;;;;;;10.84;84.54;97420.97;4123050;28;21239;-85
2023/03/13 03:40:10;;;;;;;4.70;1.87;;;;;;;10.86;85.75;97418.22;4119146;28;20623;-85
2023/03/13 03:42:14;;;;;;;4.20;1.70;;;;;;;10.85;85.59;97414.81;4122465;28;20678;-85
2023/03/13 03:44:17;;;;;;;6.23;2.07;;;;;;;10.85;85.08;97416.56;4133921;28;20630;-85
2023/03/13 03:46:32;;;;;;;5.97;1.57;;;;;;;10.85;85.15;97414.81;4125384;28;20733;-85
2023/03/13 03:48:35;;;;;;;9.17;2.20;;;;;;;10.86;85.55;97413.81;4124964;28;20689;-86
2023/03/13 03:50:42;;;;;;;6.53;1.80;;;;;;;10.85;87.11;97417.41;4135997;28;20634;-86
2023/03/13 03:52:45;;;;;;;3.50;2.00;;;;;;;10.81;86.26;97410.78;4134324;28;20755;-86
2023/03/13 03:54:48;;;;;;;8.23;1.87;;;;;;;10.80;87.84;97409.09;4117898;28;20643;-85
2023/03/13 03:56:52;;;;;;;8.23;2.23;;;;;;;10.79;87.34;97414.44;4134534;28;20627;-85
2023/03/13 03:58:56;;;;;;;7.03;2.20;;;;;;;10.79;87.57;97416.22;4121986;28;20640;-85
2023/03/13 04:01:08;;;;;;;4.80;1.70;;;;;;;10.76;88.88;97408.66;4120619;28;20701;-85
2023/03/13 04:03:12;;;;;;;14.13;2.97;;;;;;;10.76;88.35;97401.63;4099823;28;20691;-85
2023/03/13 04:05:15;;;;;;;6.33;2.30;;;;;;;10.79;88.47;97403.19;4118925;28;20674;-85
2023/03/13 04:07:20;;;;;;;6.00;1.90;;;;;;;10.79;89.12;97395.38;4134983;28;21420;-86
2023/03/13 04:09:24;;;;;;;8.03;1.67;;;;;;;10.76;88.88;97395.59;4122147;28;21262;-85
2023/03/13 04:11:27;;;;;;;4.97;2.53;;;;;;;10.74;88.51;97381.88;4108617;28;20735;-85
2023/03/13 04:13:31;;;;;;;5.97;2.03;;;;;;;10.72;88.29;97386.34;4104789;28;20654;-85
2023/03/13 04:15:34;;;;;;;3.77;1.80;;;;;;;10.74;89.25;97382.69;4126952;28;21201;-85
2023/03/13 04:17:38;;;;;;;4.43;2.10;;;;;;;10.74;89.70;97384.47;4102087;28;20645;-85
2023/03/13 04:19:42;;;;;;;8.60;2.13;;;;;;;10.74;89.25;97382.69;4104786;28;20647;-85
2023/03/13 04:21:46;;;;;;;4.63;1.90;;;;;;;10.75;89.85;97375.69;4124093;28;20636;-85
2023/03/13 04:23:54;;;;;;;7.50;2.10;;;;;;;10.76;90.10;97375.56;4101343;28;20641;-85
2023/03/13 04:25:57;;;;;;;9.03;2.20;;;;;;;10.79;88.66;97372.72;4141238;28;21118;-85
2023/03/13 04:28:01;;;;;;;5.00;1.90;;;;;;;10.80;88.91;97371.75;4136042;28;21202;-85
2023/03/13 04:30:12;;;;;;;5.63;1.97;;;;;;;10.81;89.03;97368.22;4119635;28;20665;-85
2023/03/13 04:32:20;;;;;;;8.03;2.03;;;;;;;10.84;90.16;97363.56;4119396;28;20635;-86
2023/03/13 04:34:42;;;;;;;3.93;1.63;;;;;;;10.86;89.42;97366.88;4117560;28;20652;-85
2023/03/13 04:36:48;;;;;;;6.63;1.90;;;;;;;10.90;88.67;97362.25;4122347;28;20642;-85
2023/03/13 04:39:11;;;;;;;5.10;1.50;;;;;;;10.97;89.13;97358.19;4123269;28;21241;-84
2023/03/13 04:41:26;;;;;;;7.17;1.80;;;;;;;11.04;90.31;97360.16;4128510;28;20637;-85
2023/03/13 04:43:52;;;;;;;5.83;2.00;;;;;;;11.14;90.62;97366.28;4115238;28;20656;-85
2023/03/13 04:46:18;;;;;;;5.97;1.50;;;;;;;11.22;90.53;97368.28;4115622;28;20652;-86
2023/03/13 04:48:31;;;;;;;4.50;1.47;;;;;;;11.29;89.16;97373.69;4137278;28;21290;-85
2023/03/13 04:50:57;;;;;;;3.60;1.47;;;;;;;11.35;90.63;97369.72;4115192;28;20651;-85
2023/03/13 04:53:13;;;;;;;3.83;1.57;;;;;;;11.38;90.61;97372.06;4107794;28;20640;-85
2023/03/13 04:55:38;;;;;;;5.87;1.80;;;;;;;11.39;89.09;97371.94;4124144;28;21124;-85
2023/03/13 04:58:00;;;;;;;2.33;1.40;;;;;;;11.44;90.97;97371.56;4136565;28;20705;-85
2023/03/13 05:00:20;;;;;;;3.40;1.40;;;;;;;11.45;90.17;97378.47;4117002;28;20739;-85
2023/03/13 05:02:43;;;;;;;2.53;1.20;;;;;;;11.50;90.44;97368.47;4116877;28;20628;-85
2023/03/13 05:04:52;;;;;;;2.97;1.40;;;;;;;11.52;90.49;97371.81;4132010;28;20819;-85
2023/03/13 05:07:14;;;;;;;2.07;0.97;;;;;;;11.54;93.50;97362.88;4123476;28;21355;-85
2023/03/13 05:09:32;;;;;;;3.60;1.20;;;;;;;11.56;93.13;97366.22;4135595;28;20645;-86
2023/03/13 05:11:55;;;;;;;2.00;0.83;;;;;;;11.62;92.85;97372.69;4108127;28;20647;-85
2023/03/13 05:14:00;;;;;;;3.27;1.10;;;;;;;11.69;94.35;97371.22;4119111;28;20635;-85
2023/03/13 05:16:15;;;;;;;3.50;1.27;;;;;;;11.70;93.67;97362.41;4124632;28;20669;-85
2023/03/13 05:18:38;;;;;;;2.50;1.07;;;;;;;11.73;95.84;97370.00;4120732;28;20727;-85
2023/03/13 05:21:04;;;;;;;4.20;0.90;;;;;;;11.75;93.88;97379.38;4112021;28;20644;-85
2023/03/13 05:23:17;;;;;;;2.40;1.23;;;;;;;11.76;94.86;97366.16;4104654;28;20661;-85
2023/03/13 05:25:40;;;;;;;2.20;0.93;;;;;;;11.77;96.15;97361.75;4109604;28;21274;-85
2023/03/13 05:27:58;;;;;;;3.50;1.13;;;;;;;11.79;96.52;97365.91;4119631;28;20758;-85
2023/03/13 05:30:18;;;;;;;2.23;0.90;;;;;;;11.78;95.50;97359.03;4122441;28;20660;-86
2023/03/13 05:32:37;;;;;;;2.97;1.10;;;;;;;11.79;94.53;97362.47;4122135;28;21073;-85
2023/03/13 05:35:03;;;;;;;5.97;1.27;;;;;;;11.83;96.61;97361.25;4139612;28;21313;-86
2023/03/13 05:37:24;;;;;;;2.00;0.80;;;;;;;11.83;94.53;97356.88;4123454;28;20692;-86
2023/03/13 05:39:37;;;;;;;1.47;0.83;;;;;;;11.84;95.11;97360.31;4139152;28;21241;-86
2023/03/13 05:41:53;;;;;;;1.50;0.80;;;;;;;11.81;96.61;97353.53;4120629;28;20663;-85
2023/03/13 05:44:33;;;;;;;1.93;0.80;;;;;;;11.87;95.43;97355.63;4107122;28;20690;-86
2023/03/13 05:46:49;;;;;;;1.30;0.60;;;;;;;11.90;94.65;97351.94;4117603;28;20644;-85
2023/03/13 05:49:17;;;;;;;3.47;0.90;;;;;;;11.91;96.84;97351.00;4132881;28;20642;-84
2023/03/13 05:51:38;;;;;;;1.63;1.10;;;;;;;11.91;96.45;97353.59;4122639;28;20631;-84
2023/03/13 05:54:00;;;;;;;2.33;0.73;;;;;;;11.94;96.20;97364.63;4143028;28;20633;-85
2023/03/13 05:56:41;;;;;;;1.97;1.43;;;;;;;11.96;96.07;97365.31;4125201;28;20635;-83
2023/03/13 05:58:59;;;;;;;3.23;0.90;;;;;;;11.96;96.63;97361.88;4120327;28;21055;-84
2023/03/13 06:01:22;;;;;;;1.87;0.90;;;;;;;11.96;97.26;97359.25;4123359;28;20646;-84
2023/03/13 06:03:32;;;;;;;2.57;1.20;;;;;;;11.96;97.35;97362.69;4127106;28;20634;-84
2023/03/13 06:05:35;;;;;;;1.37;0.80;;;;;;;11.94;96.87;97353.34;4143236;28;20684;-85
2023/03/13 06:07:42;;;;;;;2.33;1.00;;;;;;;11.92;96.47;97361.31;4139136;28;21179;-84
2023/03/13 06:09:45;;;;;;;2.00;1.03;;;;;;;11.93;98.33;97354.28;4122199;28;20650;-85
2023/03/13 06:11:49;;;;;;;3.23;1.00;;;;;;;11.88;97.98;97357.28;4112284;28;21091;-85
2023/03/13 06:13:53;;;;;;;2.47;1.50;;;;;;;11.92;97.37;97355.25;4122958;28;20642;-84
2023/03/13 06:16:15;;;;;;;2.43;1.00;;;;;;;11.94;98.29;97354.16;4122204;28;20669;-85
2023/03/13 06:18:22;;;;;;;1.77;0.80;;;;;;;11.95;97.23;97350.59;4125021;28;20646;-86
2023/03/13 06:20:25;;;;;;;4.17;0.80;;;;;;;11.95;96.77;97360.22;4120268;28;20619;-86
2023/03/13 06:22:29;;;;;;;2.57;0.80;;;;;;;12.00;96.04;97353.63;4122910;28;25004;-85
2023/03/13 06:24:32;;;;;;;1.80;0.80;;;;;;;12.02;97.92;97361.34;4125329;28;20627;-85
2023/03/13 06:26:36;;;;;;;3.10;1.60;;;;;;;12.01;97.79;97357.91;4128596;28;20680;-85
2023/03/13 06:28:39;;;;;;;2.83;1.73;;;;;;;12.03;96.61;97352.56;4112630;28;20779;-85
2023/03/13 06:30:42;;;;;;;4.30;1.00;;;;;;;12.07;96.97;97354.78;4121417;28;20753;-86
2023/03/13 06:32:45;;;;;;;2.97;0.80;;;;;;;12.12;95.27;97344.75;4125297;28;20637;-85
2023/03/13 06:34:51;;;;;;;1.63;0.90;;;;;;;12.16;95.89;97353.13;4138244;28;20634;-85
2023/03/13 06:36:55;;;;;;;1.90;0.97;;;;;;;12.20;95.47;97349.31;4128642;28;21194;-86
2023/03/13 06:38:58;;;;;;;2.00;0.70;;;;;;;12.23;95.82;97344.63;4124774;28;20673;-86
2023/03/13 06:41:01;;;;;;;1.53;0.70;;;;;;;12.28;95.56;97347.66;4126042;28;21305;-86
2023/03/13 06:43:04;;;;;;;1.50;1.10;;;;;;;12.29;94.90;97344.09;4121734;28;21032;-85
2023/03/13 06:45:09;;;;;;;2.03;0.90;;;;;;;12.30;95.31;97343.16;4125435;28;20630;-85
2023/03/13 06:47:12;;;;;;;1.40;0.90;;;;;;;12.34;94.29;97344.53;4126868;28;20670;-84
2023/03/13 06:49:17;;;;;;;1.63;0.80;;;;;;;12.36;94.06;97350.47;4125624;28;20645;-84
2023/03/13 06:51:22;;;;;;;1.00;0.60;;;;;;;12.39;94.70;97347.59;4128605;28;20642;-84
2023/03/13 06:53:25;;;;;;;2.00;0.87;;;;;;;12.40;94.76;97357.06;4129720;28;20637;-84
2023/03/13 06:55:28;;;;;;;1.23;0.70;;;;;;;12.42;94.58;97345.53;4128427;28;20662;-84
2023/03/13 06:57:31;;;;;;;1.10;0.60;;;;;;;12.41;93.40;97343.03;4124591;28;21228;-84
2023/03/13 06:59:34;;;;;;;1.50;0.70;;;;;;;12.47;94.94;97352.97;4126925;28;21217;-84
2023/03/13 07:01:37;;;;;;;5.83;1.63;;;;;;;12.50;94.26;97357.94;4113525;28;20628;-84
2023/03/13 07:03:41;;;;;;;1.70;0.90;;;;;;;12.54;93.88;97361.91;4081651;28;1116972;-84
2023/03/13 07:05:44;;;;;;;1.23;0.80;;;;;;;12.55;94.98;97355.72;4125064;28;20654;-84
2023/03/13 07:07:48;;;;;;;1.63;0.90;;;;;;;12.56;94.83;97357.41;4138996;28;20818;-84
2023/03/13 07:09:51;;;;;;;1.45;0.73;;;;;;;12.57;94.86;97361.66;4136496;28;20772;-84
2023/03/13 07:11:56;;;;;;;1.70;0.77;;;;;;;12.62;94.57;97368.13;4126212;28;20213;-85
2023/03/13 07:14:01;;;;;;;1.00;0.47;;;;;;;12.67;94.41;97362.50;4121993;28;20636;-82
2023/03/13 07:16:18;;;;;;;1.77;0.80;;;;;;;12.71;94.80;97369.94;4123746;28;20663;-84
2023/03/13 07:18:22;;;;;;;1.93;0.87;;;;;;;12.73;93.22;97374.09;4132306;28;21021;-84
2023/03/13 07:20:25;;;;;;;2.00;0.80;;;;;;;12.69;94.91;97377.94;4127411;28;20643;-83
2023/03/13 07:22:28;;;;;;;1.53;0.70;;;;;;;12.72;94.16;97377.66;4129021;28;20631;-83
2023/03/13 07:24:33;;;;;;;1.10;0.60;;;;;;;12.70;94.48;97379.59;4128491;28;20682;-83
2023/03/13 07:26:36;;;;;;;5.50;1.53;;;;;;;12.72;93.22;97377.66;4125731;28;20625;-84
2023/03/13 07:28:39;;;;;;;2.30;1.53;;;;;;;12.72;93.54;97372.44;4114866;28;20644;-84
2023/03/13 07:30:42;;;;;;;1.10;0.50;;;;;;;12.72;94.01;97380.28;4122986;28;21177;-83
2023/03/13 07:32:45;;;;;;;1.27;0.60;;;;;;;12.74;94.04;97375.72;4116126;28;22185;-82
2023/03/13 07:34:49;;;;;;;1.17;0.70;;;;;;;12.73;95.29;97375.84;4125821;28;21269;-81
2023/03/13 07:36:52;;;;;;;1.20;0.67;;;;;;;12.73;94.58;97371.47;4124739;28;20667;-81
2023/03/13 07:38:55;;;;;;;1.20;0.70;;;;;;;12.75;94.45;97377.38;4126207;28;21050;-81
2023/03/13 07:41:00;;;;;;;1.30;0.80;;;;;;;12.74;94.99;97360.03;4126954;28;20638;-81
2023/03/13 07:43:03;;;;;;;1.40;0.63;;;;;;;12.77;96.32;97374.63;4120725;28;20662;-81
2023/03/13 07:45:07;;;;;;;2.30;0.97;;;;;;;12.75;97.66;97368.72;4121148;28;20719;-81
2023/03/13 07:47:10;;;;;;;2.27;0.70;;;;;;;12.77;96.01;97362.38;4126382;28;20643;-81
2023/03/13 07:49:14;;;;;;;1.67;1.10;;;;;;;12.77;97.15;97367.59;4120977;28;21074;-83
2023/03/13 07:51:18;;;;;;;1.57;0.97;;;;;;;12.81;97.40;97352.47;4114410;28;20975;-81
2023/03/13 07:53:32;;;;;;;1.30;0.70;;;;;;;12.84;96.67;97354.84;4112339;28;20694;-81
2023/03/13 07:55:35;;;;;;;1.60;1.00;;;;;;;12.92;95.21;97345.34;4126662;28;20637;-81
2023/03/13 07:57:40;;;;;;;1.53;0.60;;;;;;;13.00;95.94;97355.94;4120854;28;21004;-81
2023/03/13 07:59:43;;;;;;;7.73;3.97;;;;;;;13.04;95.46;97346.03;4128438;28;20643;-81
2023/03/13 08:01:46;;;;;;;1.97;1.20;;;;;;;13.05;94.51;97347.69;4122998;28;20752;-81
2023/03/13 08:03:49;;;;;;;2.23;0.70;;;;;;;13.07;95.14;97349.22;4125786;28;20759;-80
2023/03/13 08:06:03;;;;;;;1.43;0.70;;;;;;;13.07;94.35;97341.34;4120860;28;20664;-80
2023/03/13 08:08:07;;;;;;;4.53;1.33;;;;;;;13.10;93.75;97348.94;4115811;28;21234;-80
2023/03/13 08:10:13;;;;;;;1.73;0.70;;;;;;;13.13;93.77;97345.22;4123448;28;21232;-80
2023/03/13 08:12:16;;;;;;;1.27;0.70;;;;;;;13.18;94.59;97345.63;4126174;28;21280;-82
2023/03/13 08:14:21;;;;;;;1.17;0.70;;;;;;;13.19;93.78;97348.09;4121780;28;20637;-82
2023/03/13 08:16:25;;;;;;;1.20;0.63;;;;;;;13.23;93.44;97341.63;4123053;28;20656;-81
2023/03/13 08:18:33;;;;;;;1.40;0.80;;;;;;;13.24;94.28;97341.50;4117429;28;20742;-83
2023/03/13 08:20:36;;;;;;;1.73;0.93;;;;;;;13.28;93.33;97344.66;4115355;28;20762;-83
2023/03/13 08:22:39;;;;;;;1.53;0.90;;;;;;;13.29;93.55;97336.66;4117416;28;20636;-83
2023/03/13 08:24:42;;;;;;;2.17;0.93;;;;;;;13.32;93.46;97327.66;4120320;28;20720;-83
2023/03/13 08:26:45;;;;;;;2.03;0.90;;;;;;;13.37;92.98;97321.06;4111847;28;20634;-82
2023/03/13 08:28:53;;;;;;;1.30;0.80;;;;;;;13.49;93.13;97311.25;4123211;28;21072;-83
2023/03/13 08:30:57;;;;;;;1.60;0.83;;;;;;;13.60;93.68;97317.13;4111454;28;21183;-83
2023/03/13 08:33:00;;;;;;;1.50;0.90;;;;;;;13.69;92.58;97306.63;4120664;28;20708;-82
2023/03/13 08:35:04;;;;;;;1.40;0.90;;;;;;;13.81;92.61;97309.91;4139810;28;20626;-83
2023/03/13 08:37:07;;;;;;;1.30;0.77;;;;;;;13.92;92.53;97309.72;4116480;28;20681;-83
2023/03/13 08:39:12;;;;;;;1.70;1.07;;;;;;;14.03;92.58;97326.09;4108635;28;20723;-82
2023/03/13 08:41:17;;;;;;;1.73;0.90;;;;;;;14.15;91.78;97317.94;4128486;28;20643;-82
2023/03/13 08:43:20;;;;;;;1.40;0.73;;;;;;;14.22;91.88;97328.66;4107320;28;21345;-82
2023/03/13 08:45:23;;;;;;;1.53;0.87;;;;;;;14.29;90.83;97321.88;4106270;28;20649;-83
2023/03/13 08:47:28;;;;;;;1.60;0.87;;;;;;;14.35;90.51;97321.28;4110837;28;20649;-82
2023/03/13 08:49:31;;;;;;;2.37;0.70;;;;;;;14.49;91.17;97318.97;4121760;28;21246;-82
2023/03/13 08:51:34;;;;;;;2.03;0.90;;;;;;;14.60;90.91;97331.91;4132492;28;21231;-83
2023/03/13 08:53:39;;;;;;;1.63;0.77;;;;;;;14.72;90.72;97323.66;4135353;28;20637;-83
2023/03/13 08:55:42;;;;;;;2.60;0.90;;;;;;;14.78;88.77;97315.19;4114996;28;20658;-82
2023/03/13 08:57:45;;;;;;;6.90;4.97;;;;;;;14.84;90.35;97325.09;4126212;28;20652;-83
2023/03/13 08:59:50;;;;;;;1.40;0.90;;;;;;;14.81;87.96;97319.34;4122185;28;20647;-83
2023/03/13 09:01:53;;;;;;;1.90;1.00;;;;;;;14.68;88.11;97313.63;4115768;28;20633;-82
2023/03/13 09:03:59;;;;;;;2.13;0.80;;;;;;;14.65;88.91;97314.72;4116486;28;20720;-83
2023/03/13 09:06:07;;;;;;;1.70;0.97;;;;;;;14.66;89.26;97312.94;4117494;28;20628;-82
2023/03/13 09:08:10;;;;;;;2.30;0.80;;;;;;;14.67;88.62;97306.72;4118197;28;20637;-83
2023/03/13 09:10:13;;;;;;;2.63;0.90;;;;;;;14.69;87.62;97308.22;4132799;28;20672;-82
2023/03/13 09:12:16;;;;;;;1.30;0.70;;;;;;;14.72;88.44;97307.91;4121034;28;21050;-83
2023/03/13 09:14:32;;;;;;;1.60;0.80;;;;;;;14.70;88.39;97306.41;4117685;28;20638;-82
2023/03/13 09:16:38;;;;;;;2.27;0.80;;;;;;;14.71;89.04;97308.88;4131934;28;20647;-82
2023/03/13 09:18:41;;;;;;;1.73;1.00;;;;;;;14.72;89.29;97310.53;4119198;28;20636;-83
2023/03/13 09:20:46;;;;;;;1.50;0.90;;;;;;;14.71;90.04;97308.06;4121748;28;22938;-82
2023/03/13 09:22:51;;;;;;;2.40;1.03;;;;;;;14.69;88.60;97310.84;4126243;28;20640;-82
2023/03/13 09:24:53;;;;;;;2.13;1.10;;;;;;;14.60;89.28;97313.53;4118654;28;20699;-83
2023/03/13 09:26:57;;;;;;;2.40;1.20;;;;;;;14.61;88.79;97310.78;4121109;28;20645;-82
2023/03/13 09:29:03;;;;;;;2.17;1.00;;;;;;;14.66;88.76;97302.44;4116721;28;21188;-82
2023/03/13 09:31:07;;;;;;;2.23;1.00;;;;;;;14.65;89.64;97301.59;4120802;28;20709;-82
2023/03/13 09:33:11;;;;;;;1.60;1.00;;;;;;;14.64;89.04;97301.75;4110709;28;20654;-82
2023/03/13 09:35:14;;;;;;;4.23;2.30;;;;;;;14.67;89.69;97291.81;4114008;28;20646;-82
2023/03/13 09:37:19;;;;;;;3.10;2.03;;;;;;;14.71;88.84;97293.13;4117337;28;20647;-83
2023/03/13 09:39:22;;;;;;;2.33;1.30;;;;;;;14.70;88.44;97291.50;4118895;28;20637;-83
2023/03/13 09:41:27;;;;;;;1.60;0.93;;;;;;;14.73;88.53;97299.09;4123309;28;20685;-81
2023/03/13 09:43:37;;;;;;;2.13;1.37;;;;;;;14.72;87.68;97299.22;4119828;28;20676;-81
2023/03/13 09:45:43;;;;;;;2.80;1.43;;;;;;;14.73;87.68;97300.88;4137630;28;21115;-82
2023/03/13 09:47:48;;;;;;;2.57;1.20;;;;;;;14.70;89.16;97312.50;4121732;28;20632;-82
2023/03/13 09:49:54;;;;;;;2.43;1.37;;;;;;;14.71;88.32;97308.06;4117463;28;20632;-81
2023/03/13 09:52:03;;;;;;;1.63;1.10;;;;;;;14.72;87.57;97310.53;4123204;28;20913;-82
2023/03/13 09:54:09;;;;;;;2.30;1.40;;;;;;;14.71;87.33;97306.25;4120195;28;21216;-81
2023/03/13 09:56:17;;;;;;;1.60;1.17;;;;;;;14.73;88.20;97304.34;4121618;28;20697;-81